sensor_id;sensor_type;location;lat;lon;timestamp;pressure;altitude;pressure_sealevel;temperature;humidity
9740;BME280;4909;42.680;26.324;2023-07-28T00:01:33;98503.41;;;23.61;50.54
9740;BME280;4909;42.680;26.324;2023-07-28T00:04:00;98501.06;;;23.49;50.86
9740;BME280;4909;42.680;26.324;2023-07-28T00:06:28;98495.91;;;23.28;50.54
9740;BME280;4909;42.680;26.324;2023-07-28T00:08:54;98518.13;;;23.31;52.34
9740;BME280;4909;42.680;26.324;2023-07-28T00:11:21;98510.38;;;23.46;51.61
9740;BME280;4909;42.680;26.324;2023-07-28T00:13:48;98507.00;;;23.79;51.60
9740;BME280;4909;42.680;26.324;2023-07-28T00:16:16;98506.22;;;23.42;50.08
9740;BME280;4909;42.680;26.324;2023-07-28T00:18:43;98519.19;;;23.38;52.02
9740;BME280;4909;42.680;26.324;2023-07-28T00:21:10;98520.00;;;23.21;49.91
9740;BME280;4909;42.680;26.324;2023-07-28T00:23:36;98526.47;;;23.11;52.03
9740;BME280;4909;42.680;26.324;2023-07-28T00:26:03;98522.44;;;22.87;50.07
9740;BME280;4909;42.680;26.324;2023-07-28T00:28:30;98516.78;;;22.62;52.84
9740;BME280;4909;42.680;26.324;2023-07-28T00:30:56;98516.03;;;22.88;53.22
9740;BME280;4909;42.680;26.324;2023-07-28T00:33:25;98520.16;;;22.92;52.02
9740;BME280;4909;42.680;26.324;2023-07-28T00:35:51;98523.31;;;22.88;50.82
9740;BME280;4909;42.680;26.324;2023-07-28T00:38:19;98514.34;;;22.78;52.48
9740;BME280;4909;42.680;26.324;2023-07-28T00:40:46;98514.31;;;22.87;52.91
9740;BME280;4909;42.680;26.324;2023-07-28T00:43:12;98509.88;;;22.96;52.00
9740;BME280;4909;42.680;26.324;2023-07-28T00:45:39;98516.94;;;23.07;51.30
9740;BME280;4909;42.680;26.324;2023-07-28T00:48:11;98515.81;;;23.00;52.91
9740;BME280;4909;42.680;26.324;2023-07-28T00:50:41;98516.19;;;23.14;50.63
9740;BME280;4909;42.680;26.324;2023-07-28T00:53:08;98516.28;;;22.95;50.92
9740;BME280;4909;42.680;26.324;2023-07-28T00:55:35;98511.28;;;23.00;49.72
9740;BME280;4909;42.680;26.324;2023-07-28T00:58:02;98521.72;;;22.85;50.80
9740;BME280;4909;42.680;26.324;2023-07-28T01:00:28;98516.25;;;22.58;50.05
9740;BME280;4909;42.680;26.324;2023-07-28T01:02:55;98516.59;;;22.36;53.04
9740;BME280;4909;42.680;26.324;2023-07-28T01:05:26;98507.84;;;22.51;54.59
9740;BME280;4909;42.680;26.324;2023-07-28T01:08:00;98504.72;;;22.46;52.11
9740;BME280;4909;42.680;26.324;2023-07-28T01:10:31;98505.75;;;22.36;52.63
9740;BME280;4909;42.680;26.324;2023-07-28T01:12:58;98490.69;;;22.14;51.11
9740;BME280;4909;42.680;26.324;2023-07-28T01:15:25;98513.16;;;22.24;52.94
9740;BME280;4909;42.680;26.324;2023-07-28T01:17:52;98501.50;;;22.14;51.52
9740;BME280;4909;42.680;26.324;2023-07-28T01:20:20;98513.72;;;22.28;54.65
9740;BME280;4909;42.680;26.324;2023-07-28T01:23:09;98514.72;;;22.46;52.99
9740;BME280;4909;42.680;26.324;2023-07-28T01:25:47;98514.72;;;22.36;53.09
9740;BME280;4909;42.680;26.324;2023-07-28T01:28:15;98515.31;;;22.11;54.28
9740;BME280;4909;42.680;26.324;2023-07-28T01:30:43;98519.97;;;21.90;54.61
9740;BME280;4909;42.680;26.324;2023-07-28T01:33:10;98528.53;;;22.04;49.11
9740;BME280;4909;42.680;26.324;2023-07-28T01:35:37;98526.56;;;21.97;53.41
9740;BME280;4909;42.680;26.324;2023-07-28T01:38:04;98514.28;;;21.74;49.93
9740;BME280;4909;42.680;26.324;2023-07-28T01:40:31;98525.31;;;21.42;50.65
9740;BME280;4909;42.680;26.324;2023-07-28T01:42:58;98520.44;;;21.26;51.36
9740;BME280;4909;42.680;26.324;2023-07-28T01:45:26;98522.44;;;21.24;52.42
9740;BME280;4909;42.680;26.324;2023-07-28T01:47:53;98509.41;;;21.39;54.58
9740;BME280;4909;42.680;26.324;2023-07-28T01:50:19;98516.09;;;21.35;54.30
9740;BME280;4909;42.680;26.324;2023-07-28T01:52:46;98535.63;;;21.67;54.63
9740;BME280;4909;42.680;26.324;2023-07-28T01:55:13;98531.66;;;21.90;55.07
9740;BME280;4909;42.680;26.324;2023-07-28T01:57:40;98535.63;;;21.86;51.26
9740;BME280;4909;42.680;26.324;2023-07-28T02:00:07;98527.22;;;21.89;51.62
9740;BME280;4909;42.680;26.324;2023-07-28T02:02:36;98525.25;;;21.82;53.98
9740;BME280;4909;42.680;26.324;2023-07-28T02:05:03;98527.53;;;21.86;53.01
9740;BME280;4909;42.680;26.324;2023-07-28T02:07:29;98533.53;;;22.09;54.69
9740;BME280;4909;42.680;26.324;2023-07-28T02:09:56;98528.69;;;22.13;54.12
9740;BME280;4909;42.680;26.324;2023-07-28T02:12:23;98536.09;;;22.01;51.66
9740;BME280;4909;42.680;26.324;2023-07-28T02:14:50;98539.91;;;22.08;54.86
9740;BME280;4909;42.680;26.324;2023-07-28T02:17:17;98536.09;;;22.10;54.36
9740;BME280;4909;42.680;26.324;2023-07-28T02:19:45;98547.03;;;22.09;51.24
9740;BME280;4909;42.680;26.324;2023-07-28T02:22:12;98538.91;;;22.28;53.77
9740;BME280;4909;42.680;26.324;2023-07-28T02:24:39;98544.50;;;22.17;51.49
9740;BME280;4909;42.680;26.324;2023-07-28T02:27:06;98532.66;;;21.99;52.45
9740;BME280;4909;42.680;26.324;2023-07-28T02:29:33;98528.69;;;22.13;53.99
9740;BME280;4909;42.680;26.324;2023-07-28T02:31:59;98528.41;;;22.16;53.05
9740;BME280;4909;42.680;26.324;2023-07-28T02:34:26;98537.66;;;22.13;52.93
9740;BME280;4909;42.680;26.324;2023-07-28T02:36:54;98539.78;;;22.09;53.26
9740;BME280;4909;42.680;26.324;2023-07-28T02:39:21;98540.06;;;21.87;52.64
9740;BME280;4909;42.680;26.324;2023-07-28T02:41:48;98544.72;;;21.85;53.65
9740;BME280;4909;42.680;26.324;2023-07-28T02:44:15;98543.28;;;21.72;53.33
9740;BME280;4909;42.680;26.324;2023-07-28T02:46:41;98542.16;;;21.74;54.00
9740;BME280;4909;42.680;26.324;2023-07-28T02:49:09;98541.25;;;21.54;52.97
9740;BME280;4909;42.680;26.324;2023-07-28T02:51:36;98545.53;;;21.57;53.63
9740;BME280;4909;42.680;26.324;2023-07-28T02:54:04;98552.50;;;21.69;54.05
9740;BME280;4909;42.680;26.324;2023-07-28T02:56:31;98548.97;;;21.59;53.95
9740;BME280;4909;42.680;26.324;2023-07-28T02:59:02;98543.78;;;21.37;52.71
9740;BME280;4909;42.680;26.324;2023-07-28T03:01:29;98554.50;;;21.57;55.97
9740;BME280;4909;42.680;26.324;2023-07-28T03:03:58;98544.34;;;21.40;55.82
9740;BME280;4909;42.680;26.324;2023-07-28T03:06:25;98551.59;;;21.40;55.66
9740;BME280;4909;42.680;26.324;2023-07-28T03:08:52;98529.38;;;21.17;54.93
9740;BME280;4909;42.680;26.324;2023-07-28T03:11:20;98551.56;;;21.30;54.96
9740;BME280;4909;42.680;26.324;2023-07-28T03:13:47;98558.44;;;21.34;55.47
9740;BME280;4909;42.680;26.324;2023-07-28T03:16:14;98553.28;;;21.31;55.38
9740;BME280;4909;42.680;26.324;2023-07-28T03:18:40;98559.91;;;21.17;55.90
9740;BME280;4909;42.680;26.324;2023-07-28T03:21:08;98563.59;;;21.16;56.54
9740;BME280;4909;42.680;26.324;2023-07-28T03:23:35;98564.91;;;21.22;57.12
9740;BME280;4909;42.680;26.324;2023-07-28T03:26:01;98562.00;;;21.35;57.79
9740;BME280;4909;42.680;26.324;2023-07-28T03:28:30;98562.28;;;21.41;57.65
9740;BME280;4909;42.680;26.324;2023-07-28T03:30:56;98563.97;;;21.33;56.52
9740;BME280;4909;42.680;26.324;2023-07-28T03:33:23;98561.09;;;21.24;55.59
9740;BME280;4909;42.680;26.324;2023-07-28T03:35:50;98556.13;;;21.20;56.27
9740;BME280;4909;42.680;26.324;2023-07-28T03:38:17;98567.53;;;21.12;56.81
9740;BME280;4909;42.680;26.324;2023-07-28T03:40:44;98544.00;;;21.14;57.74
9740;BME280;4909;42.680;26.324;2023-07-28T03:43:10;98562.56;;;21.08;56.60
9740;BME280;4909;42.680;26.324;2023-07-28T03:45:39;98571.28;;;20.91;55.80
9740;BME280;4909;42.680;26.324;2023-07-28T03:48:05;98568.66;;;20.79;56.34
9740;BME280;4909;42.680;26.324;2023-07-28T03:50:32;98568.34;;;20.73;56.53
9740;BME280;4909;42.680;26.324;2023-07-28T03:52:59;98564.81;;;20.82;57.67
9740;BME280;4909;42.680;26.324;2023-07-28T03:55:26;98573.09;;;20.60;56.72
9740;BME280;4909;42.680;26.324;2023-07-28T03:57:53;98560.34;;;20.41;58.22
9740;BME280;4909;42.680;26.324;2023-07-28T04:00:20;98585.84;;;20.58;57.01
9740;BME280;4909;42.680;26.324;2023-07-28T04:02:48;98585.38;;;20.73;57.15
9740;BME280;4909;42.680;26.324;2023-07-28T04:05:15;98582.63;;;20.64;57.03
9740;BME280;4909;42.680;26.324;2023-07-28T04:07:41;98586.56;;;20.60;55.85
9740;BME280;4909;42.680;26.324;2023-07-28T04:10:08;98585.31;;;20.43;56.39
9740;BME280;4909;42.680;26.324;2023-07-28T04:12:35;98581.50;;;20.46;56.48
9740;BME280;4909;42.680;26.324;2023-07-28T04:15:03;98569.88;;;20.45;57.54
9740;BME280;4909;42.680;26.324;2023-07-28T04:17:30;98572.69;;;20.64;57.98
9740;BME280;4909;42.680;26.324;2023-07-28T04:19:58;98593.22;;;20.76;57.02
9740;BME280;4909;42.680;26.324;2023-07-28T04:22:26;98589.50;;;20.98;56.51
9740;BME280;4909;42.680;26.324;2023-07-28T04:24:53;98583.75;;;20.92;55.29
9740;BME280;4909;42.680;26.324;2023-07-28T04:27:20;98591.16;;;20.90;55.81
9740;BME280;4909;42.680;26.324;2023-07-28T04:29:47;98593.63;;;20.72;55.83
9740;BME280;4909;42.680;26.324;2023-07-28T04:32:13;98595.78;;;21.08;59.08
9740;BME280;4909;42.680;26.324;2023-07-28T04:34:40;98595.81;;;21.39;55.86
9740;BME280;4909;42.680;26.324;2023-07-28T04:37:08;98597.63;;;21.29;55.90
9740;BME280;4909;42.680;26.324;2023-07-28T04:39:35;98603.25;;;21.56;55.17
9740;BME280;4909;42.680;26.324;2023-07-28T04:42:02;98601.59;;;21.84;54.16
9740;BME280;4909;42.680;26.324;2023-07-28T04:44:29;98608.22;;;22.00;56.17
9740;BME280;4909;42.680;26.324;2023-07-28T04:46:55;98611.22;;;22.17;54.75
9740;BME280;4909;42.680;26.324;2023-07-28T04:49:22;98606.38;;;22.30;52.63
9740;BME280;4909;42.680;26.324;2023-07-28T04:51:49;98608.50;;;22.55;52.17
9740;BME280;4909;42.680;26.324;2023-07-28T04:54:17;98601.81;;;22.59;52.92
9740;BME280;4909;42.680;26.324;2023-07-28T04:56:44;98606.22;;;22.60;51.67
9740;BME280;4909;42.680;26.324;2023-07-28T04:59:11;98614.63;;;22.57;50.51
9740;BME280;4909;42.680;26.324;2023-07-28T05:01:38;98620.88;;;22.58;49.69
9740;BME280;4909;42.680;26.324;2023-07-28T05:04:04;98611.91;;;22.67;49.14
9740;BME280;4909;42.680;26.324;2023-07-28T05:06:31;98615.59;;;22.94;51.73
9740;BME280;4909;42.680;26.324;2023-07-28T05:08:58;98612.09;;;23.21;52.26
9740;BME280;4909;42.680;26.324;2023-07-28T05:11:26;98612.59;;;23.34;49.29
9740;BME280;4909;42.680;26.324;2023-07-28T05:13:53;98597.19;;;23.35;48.76
9740;BME280;4909;42.680;26.324;2023-07-28T05:16:19;98625.94;;;23.55;47.43
9740;BME280;4909;42.680;26.324;2023-07-28T05:18:46;98620.84;;;23.43;47.44
9740;BME280;4909;42.680;26.324;2023-07-28T05:21:13;98623.16;;;23.47;47.56
9740;BME280;4909;42.680;26.324;2023-07-28T05:23:40;98625.13;;;23.45;50.29
9740;BME280;4909;42.680;26.324;2023-07-28T05:26:06;98624.53;;;23.51;48.02
9740;BME280;4909;42.680;26.324;2023-07-28T05:28:35;98603.59;;;23.34;50.13
9740;BME280;4909;42.680;26.324;2023-07-28T05:31:04;98626.00;;;23.46;47.95
9740;BME280;4909;42.680;26.324;2023-07-28T05:33:31;98630.19;;;23.58;48.51
9740;BME280;4909;42.680;26.324;2023-07-28T05:36:02;98594.94;;;23.30;46.95
9740;BME280;4909;42.680;26.324;2023-07-28T05:38:29;98635.53;;;23.50;48.73
9740;BME280;4909;42.680;26.324;2023-07-28T05:40:56;98623.38;;;23.54;47.56
9740;BME280;4909;42.680;26.324;2023-07-28T05:43:23;98627.06;;;23.62;49.64
9740;BME280;4909;42.680;26.324;2023-07-28T05:45:51;98628.88;;;23.71;49.33
9740;BME280;4909;42.680;26.324;2023-07-28T05:48:18;98624.53;;;23.78;46.75
9740;BME280;4909;42.680;26.324;2023-07-28T05:50:45;98624.19;;;23.91;48.10
9740;BME280;4909;42.680;26.324;2023-07-28T05:53:12;98630.22;;;24.03;46.05
9740;BME280;4909;42.680;26.324;2023-07-28T05:55:40;98622.44;;;24.17;45.69
9740;BME280;4909;42.680;26.324;2023-07-28T05:58:06;98625.03;;;24.19;47.02
9740;BME280;4909;42.680;26.324;2023-07-28T06:00:34;98630.59;;;24.17;44.14
9740;BME280;4909;42.680;26.324;2023-07-28T06:03:02;98637.25;;;24.23;46.71
9740;BME280;4909;42.680;26.324;2023-07-28T06:05:29;98635.25;;;24.43;44.39
9740;BME280;4909;42.680;26.324;2023-07-28T06:07:55;98641.00;;;24.57;45.92
9740;BME280;4909;42.680;26.324;2023-07-28T06:10:22;98631.72;;;24.86;44.26
9740;BME280;4909;42.680;26.324;2023-07-28T06:12:49;98634.84;;;24.91;44.28
9740;BME280;4909;42.680;26.324;2023-07-28T06:15:16;98645.53;;;25.18;44.79
9740;BME280;4909;42.680;26.324;2023-07-28T06:17:42;98642.94;;;25.34;42.55
9740;BME280;4909;42.680;26.324;2023-07-28T06:20:11;98638.22;;;25.36;42.21
9740;BME280;4909;42.680;26.324;2023-07-28T06:22:38;98629.09;;;25.45;43.01
9740;BME280;4909;42.680;26.324;2023-07-28T06:25:05;98608.97;;;25.56;42.71
9740;BME280;4909;42.680;26.324;2023-07-28T06:27:32;98644.56;;;25.79;40.35
9740;BME280;4909;42.680;26.324;2023-07-28T06:29:59;98643.19;;;25.75;39.73
9740;BME280;4909;42.680;26.324;2023-07-28T06:32:26;98636.69;;;25.68;37.62
9740;BME280;4909;42.680;26.324;2023-07-28T06:34:53;98646.28;;;25.80;41.46
9740;BME280;4909;42.680;26.324;2023-07-28T06:37:21;98647.63;;;25.84;40.75
9740;BME280;4909;42.680;26.324;2023-07-28T06:39:48;98649.53;;;25.91;39.13
9740;BME280;4909;42.680;26.324;2023-07-28T06:42:15;98643.09;;;26.01;42.78
9740;BME280;4909;42.680;26.324;2023-07-28T06:44:42;98636.69;;;26.18;42.71
9740;BME280;4909;42.680;26.324;2023-07-28T06:47:08;98637.44;;;26.28;38.01
9740;BME280;4909;42.680;26.324;2023-07-28T06:49:35;98635.06;;;26.33;41.27
9740;BME280;4909;42.680;26.324;2023-07-28T06:52:02;98633.69;;;26.45;38.74
9740;BME280;4909;42.680;26.324;2023-07-28T06:54:31;98638.97;;;26.47;38.60
9740;BME280;4909;42.680;26.324;2023-07-28T06:56:58;98639.66;;;26.49;39.61
9740;BME280;4909;42.680;26.324;2023-07-28T06:59:25;98644.78;;;26.52;38.43
9740;BME280;4909;42.680;26.324;2023-07-28T07:01:52;98639.84;;;26.55;40.57
9740;BME280;4909;42.680;26.324;2023-07-28T07:04:19;98643.06;;;26.75;41.23
9740;BME280;4909;42.680;26.324;2023-07-28T07:06:46;98644.78;;;26.60;39.40
9740;BME280;4909;42.680;26.324;2023-07-28T07:09:13;98629.81;;;26.48;35.15
9740;BME280;4909;42.680;26.324;2023-07-28T07:11:41;98633.88;;;26.60;37.10
9740;BME280;4909;42.680;26.324;2023-07-28T07:14:08;98625.72;;;26.76;40.72
9740;BME280;4909;42.680;26.324;2023-07-28T07:16:35;98628.78;;;26.97;37.69
9740;BME280;4909;42.680;26.324;2023-07-28T07:19:02;98624.56;;;26.95;37.17
9740;BME280;4909;42.680;26.324;2023-07-28T07:21:29;98625.38;;;27.03;36.13
9740;BME280;4909;42.680;26.324;2023-07-28T07:23:56;98631.84;;;27.02;34.90
9740;BME280;4909;42.680;26.324;2023-07-28T07:26:22;98627.09;;;27.04;35.48
9740;BME280;4909;42.680;26.324;2023-07-28T07:28:50;98630.97;;;27.18;37.68
9740;BME280;4909;42.680;26.324;2023-07-28T07:31:18;98629.59;;;27.30;37.56
9740;BME280;4909;42.680;26.324;2023-07-28T07:33:45;98608.47;;;27.32;36.65
9740;BME280;4909;42.680;26.324;2023-07-28T07:36:12;98634.81;;;27.56;37.86
9740;BME280;4909;42.680;26.324;2023-07-28T07:38:40;98637.22;;;27.59;34.30
9740;BME280;4909;42.680;26.324;2023-07-28T07:41:07;98630.19;;;27.64;37.14
9740;BME280;4909;42.680;26.324;2023-07-28T07:43:36;98643.66;;;27.66;31.93
9740;BME280;4909;42.680;26.324;2023-07-28T07:46:04;98634.66;;;27.57;34.93
9740;BME280;4909;42.680;26.324;2023-07-28T07:48:31;98633.28;;;27.45;32.50
9740;BME280;4909;42.680;26.324;2023-07-28T07:50:58;98622.22;;;27.47;33.90
9740;BME280;4909;42.680;26.324;2023-07-28T07:53:24;98629.56;;;27.38;37.47
9740;BME280;4909;42.680;26.324;2023-07-28T07:55:51;98629.06;;;27.51;36.50
9740;BME280;4909;42.680;26.324;2023-07-28T07:58:18;98621.34;;;27.62;37.33
9740;BME280;4909;42.680;26.324;2023-07-28T08:00:45;98637.81;;;27.77;36.45
9740;BME280;4909;42.680;26.324;2023-07-28T08:03:13;98630.97;;;27.81;34.70
9740;BME280;4909;42.680;26.324;2023-07-28T08:05:40;98638.28;;;27.89;36.26
9740;BME280;4909;42.680;26.324;2023-07-28T08:08:07;98628.75;;;27.85;35.57
9740;BME280;4909;42.680;26.324;2023-07-28T08:10:35;98630.63;;;27.84;32.79
9740;BME280;4909;42.680;26.324;2023-07-28T08:13:02;98608.13;;;27.35;33.58
9740;BME280;4909;42.680;26.324;2023-07-28T08:15:29;98635.03;;;27.38;34.05
9740;BME280;4909;42.680;26.324;2023-07-28T08:17:56;98628.09;;;27.19;32.54
9740;BME280;4909;42.680;26.324;2023-07-28T08:20:24;98625.50;;;27.26;35.34
9740;BME280;4909;42.680;26.324;2023-07-28T08:22:51;98612.00;;;27.41;33.49
9740;BME280;4909;42.680;26.324;2023-07-28T08:25:18;98606.03;;;27.45;36.61
9740;BME280;4909;42.680;26.324;2023-07-28T08:27:45;98614.50;;;27.66;34.77
9740;BME280;4909;42.680;26.324;2023-07-28T08:30:12;98613.94;;;27.79;34.29
9740;BME280;4909;42.680;26.324;2023-07-28T08:32:40;98614.88;;;27.63;31.31
9740;BME280;4909;42.680;26.324;2023-07-28T08:35:07;98610.72;;;27.76;37.19
9740;BME280;4909;42.680;26.324;2023-07-28T08:37:36;98605.06;;;27.85;33.69
9740;BME280;4909;42.680;26.324;2023-07-28T08:40:03;98623.06;;;28.02;35.09
9740;BME280;4909;42.680;26.324;2023-07-28T08:42:34;98614.13;;;28.08;31.06
9740;BME280;4909;42.680;26.324;2023-07-28T08:45:02;98613.94;;;28.10;32.61
9740;BME280;4909;42.680;26.324;2023-07-28T08:47:30;98598.34;;;27.96;31.05
9740;BME280;4909;42.680;26.324;2023-07-28T08:49:57;98601.88;;;28.04;31.23
9740;BME280;4909;42.680;26.324;2023-07-28T08:52:24;98591.75;;;28.21;32.27
9740;BME280;4909;42.680;26.324;2023-07-28T08:54:52;98593.78;;;28.42;33.45
9740;BME280;4909;42.680;26.324;2023-07-28T08:57:19;98595.16;;;28.46;31.39
9740;BME280;4909;42.680;26.324;2023-07-28T08:59:46;98590.13;;;28.35;30.08
9740;BME280;4909;42.680;26.324;2023-07-28T09:02:14;98584.03;;;28.47;30.81
9740;BME280;4909;42.680;26.324;2023-07-28T09:04:41;98596.41;;;28.58;29.02
9740;BME280;4909;42.680;26.324;2023-07-28T09:07:08;98588.28;;;28.27;30.21
9740;BME280;4909;42.680;26.324;2023-07-28T09:09:35;98589.94;;;28.36;29.79
9740;BME280;4909;42.680;26.324;2023-07-28T09:12:04;98586.66;;;28.41;29.33
9740;BME280;4909;42.680;26.324;2023-07-28T09:14:35;98575.66;;;28.49;30.28
9740;BME280;4909;42.680;26.324;2023-07-28T09:17:06;98581.47;;;28.69;31.12
9740;BME280;4909;42.680;26.324;2023-07-28T09:19:34;98578.56;;;28.93;31.35
9740;BME280;4909;42.680;26.324;2023-07-28T09:22:01;98578.66;;;29.00;29.28
9740;BME280;4909;42.680;26.324;2023-07-28T09:24:30;98567.50;;;28.86;28.93
9740;BME280;4909;42.680;26.324;2023-07-28T09:26:58;98570.53;;;28.91;30.08
9740;BME280;4909;42.680;26.324;2023-07-28T09:29:27;98576.78;;;29.15;29.40
9740;BME280;4909;42.680;26.324;2023-07-28T09:32:02;98580.06;;;29.10;27.91
9740;BME280;4909;42.680;26.324;2023-07-28T09:34:30;98568.28;;;28.80;27.45
9740;BME280;4909;42.680;26.324;2023-07-28T09:36:58;98567.97;;;28.30;27.96
9740;BME280;4909;42.680;26.324;2023-07-28T09:39:25;98565.94;;;28.32;28.58
9740;BME280;4909;42.680;26.324;2023-07-28T09:41:53;98554.69;;;28.49;29.01
9740;BME280;4909;42.680;26.324;2023-07-28T09:44:24;98566.66;;;28.86;28.56
9740;BME280;4909;42.680;26.324;2023-07-28T09:46:53;98568.28;;;29.10;27.68
9740;BME280;4909;42.680;26.324;2023-07-28T09:49:28;98533.41;;;28.97;28.20
9740;BME280;4909;42.680;26.324;2023-07-28T09:52:00;98561.72;;;29.19;28.05
9740;BME280;4909;42.680;26.324;2023-07-28T09:54:30;98558.63;;;29.36;27.00
9740;BME280;4909;42.680;26.324;2023-07-28T09:57:00;98555.44;;;29.33;26.91
9740;BME280;4909;42.680;26.324;2023-07-28T09:59:31;98552.03;;;29.31;27.05
9740;BME280;4909;42.680;26.324;2023-07-28T10:02:02;98553.81;;;29.24;26.82
9740;BME280;4909;42.680;26.324;2023-07-28T10:04:29;98532.97;;;29.23;28.15
9740;BME280;4909;42.680;26.324;2023-07-28T10:06:58;98542.06;;;29.38;28.04
9740;BME280;4909;42.680;26.324;2023-07-28T10:09:28;98546.13;;;29.19;27.10
9740;BME280;4909;42.680;26.324;2023-07-28T10:11:56;98544.38;;;29.26;27.36
9740;BME280;4909;42.680;26.324;2023-07-28T10:14:26;98550.69;;;29.12;27.10
9740;BME280;4909;42.680;26.324;2023-07-28T10:16:54;98539.06;;;29.25;27.38
9740;BME280;4909;42.680;26.324;2023-07-28T10:19:24;98530.03;;;29.39;27.54
9740;BME280;4909;42.680;26.324;2023-07-28T10:21:59;98536.16;;;29.56;27.97
9740;BME280;4909;42.680;26.324;2023-07-28T10:24:50;98534.94;;;29.58;29.03
9740;BME280;4909;42.680;26.324;2023-07-28T10:27:31;98532.69;;;29.62;26.71
9740;BME280;4909;42.680;26.324;2023-07-28T10:30:02;98531.16;;;29.59;26.18
9740;BME280;4909;42.680;26.324;2023-07-28T10:32:36;98524.28;;;29.49;26.60
9740;BME280;4909;42.680;26.324;2023-07-28T10:35:08;98524.50;;;29.32;26.17
9740;BME280;4909;42.680;26.324;2023-07-28T10:37:36;98509.41;;;29.36;27.80
9740;BME280;4909;42.680;26.324;2023-07-28T10:40:22;98522.22;;;29.51;27.21
9740;BME280;4909;42.680;26.324;2023-07-28T10:42:49;98521.28;;;29.44;26.94
9740;BME280;4909;42.680;26.324;2023-07-28T10:45:16;98512.53;;;29.33;26.87
9740;BME280;4909;42.680;26.324;2023-07-28T10:47:44;98505.63;;;29.23;26.83
9740;BME280;4909;42.680;26.324;2023-07-28T10:50:13;98490.84;;;29.03;26.74
9740;BME280;4909;42.680;26.324;2023-07-28T10:52:40;98499.69;;;28.90;27.52
9740;BME280;4909;42.680;26.324;2023-07-28T10:55:12;98490.56;;;28.98;27.13
9740;BME280;4909;42.680;26.324;2023-07-28T10:57:41;98490.16;;;29.01;27.72
9740;BME280;4909;42.680;26.324;2023-07-28T11:00:09;98488.09;;;29.17;27.21
9740;BME280;4909;42.680;26.324;2023-07-28T11:02:38;98496.84;;;29.27;27.10
9740;BME280;4909;42.680;26.324;2023-07-28T11:05:10;98476.88;;;29.27;27.31
9740;BME280;4909;42.680;26.324;2023-07-28T11:07:41;98479.06;;;29.17;27.37
9740;BME280;4909;42.680;26.324;2023-07-28T11:10:09;98468.88;;;28.96;27.30
9740;BME280;4909;42.680;26.324;2023-07-28T11:12:39;98471.03;;;28.86;27.21
9740;BME280;4909;42.680;26.324;2023-07-28T11:15:09;98468.97;;;28.73;27.16
9740;BME280;4909;42.680;26.324;2023-07-28T11:17:37;98470.09;;;28.79;27.59
9740;BME280;4909;42.680;26.324;2023-07-28T11:20:06;98468.81;;;28.67;27.48
9740;BME280;4909;42.680;26.324;2023-07-28T11:22:42;98473.13;;;28.84;28.30
9740;BME280;4909;42.680;26.324;2023-07-28T11:25:09;98466.53;;;28.93;27.74
9740;BME280;4909;42.680;26.324;2023-07-28T11:27:37;98463.97;;;28.91;27.05
9740;BME280;4909;42.680;26.324;2023-07-28T11:30:05;98461.81;;;28.87;26.95
9740;BME280;4909;42.680;26.324;2023-07-28T11:32:35;98464.41;;;28.66;27.61
9740;BME280;4909;42.680;26.324;2023-07-28T11:35:03;98465.44;;;28.65;27.66
9740;BME280;4909;42.680;26.324;2023-07-28T11:37:31;98444.22;;;28.52;27.13
9740;BME280;4909;42.680;26.324;2023-07-28T11:40:01;98453.25;;;28.38;27.71
9740;BME280;4909;42.680;26.324;2023-07-28T11:42:32;98452.19;;;28.24;28.80
9740;BME280;4909;42.680;26.324;2023-07-28T11:44:59;98457.94;;;28.29;27.49
9740;BME280;4909;42.680;26.324;2023-07-28T11:47:26;98459.84;;;28.43;28.33
9740;BME280;4909;42.680;26.324;2023-07-28T11:49:53;98443.88;;;28.55;27.34
9740;BME280;4909;42.680;26.324;2023-07-28T11:52:19;98445.47;;;28.49;27.98
9740;BME280;4909;42.680;26.324;2023-07-28T11:54:47;98434.25;;;28.59;27.73
9740;BME280;4909;42.680;26.324;2023-07-28T11:57:15;98429.19;;;28.56;26.94
9740;BME280;4909;42.680;26.324;2023-07-28T11:59:43;98433.53;;;28.65;27.43
9740;BME280;4909;42.680;26.324;2023-07-28T12:02:10;98432.44;;;28.74;27.33
9740;BME280;4909;42.680;26.324;2023-07-28T12:04:38;98434.66;;;28.85;27.22
9740;BME280;4909;42.680;26.324;2023-07-28T12:07:07;98424.03;;;28.76;26.39
9740;BME280;4909;42.680;26.324;2023-07-28T12:09:50;98433.47;;;28.73;26.99
9740;BME280;4909;42.680;26.324;2023-07-28T12:12:22;98424.94;;;28.53;26.39
9740;BME280;4909;42.680;26.324;2023-07-28T12:14:50;98423.06;;;28.54;27.30
9740;BME280;4909;42.680;26.324;2023-07-28T12:17:18;98428.91;;;28.66;26.99
9740;BME280;4909;42.680;26.324;2023-07-28T12:19:57;98424.22;;;28.74;27.92
9740;BME280;4909;42.680;26.324;2023-07-28T12:22:23;98418.63;;;28.68;26.91
9740;BME280;4909;42.680;26.324;2023-07-28T12:24:50;98419.03;;;28.65;26.81
9740;BME280;4909;42.680;26.324;2023-07-28T12:27:18;98412.81;;;28.71;28.43
9740;BME280;4909;42.680;26.324;2023-07-28T12:29:48;98409.69;;;28.59;26.75
9740;BME280;4909;42.680;26.324;2023-07-28T12:32:15;98403.09;;;28.53;27.22
9740;BME280;4909;42.680;26.324;2023-07-28T12:34:42;98407.53;;;28.55;27.24
9740;BME280;4909;42.680;26.324;2023-07-28T12:37:09;98405.06;;;28.60;27.77
9740;BME280;4909;42.680;26.324;2023-07-28T12:39:37;98397.44;;;28.55;26.76
9740;BME280;4909;42.680;26.324;2023-07-28T12:42:05;98398.88;;;28.66;28.59
9740;BME280;4909;42.680;26.324;2023-07-28T12:44:33;98382.00;;;28.62;27.74
9740;BME280;4909;42.680;26.324;2023-07-28T12:47:01;98385.41;;;28.64;27.21
9740;BME280;4909;42.680;26.324;2023-07-28T12:49:28;98385.00;;;28.67;27.07
9740;BME280;4909;42.680;26.324;2023-07-28T12:51:55;98380.53;;;28.74;28.70
9740;BME280;4909;42.680;26.324;2023-07-28T12:54:22;98373.75;;;28.85;27.45
9740;BME280;4909;42.680;26.324;2023-07-28T12:56:50;98374.09;;;28.82;27.47
9740;BME280;4909;42.680;26.324;2023-07-28T12:59:17;98363.94;;;28.76;26.91
9740;BME280;4909;42.680;26.324;2023-07-28T13:01:45;98366.75;;;28.82;26.19
9740;BME280;4909;42.680;26.324;2023-07-28T13:04:12;98367.16;;;28.79;26.54
9740;BME280;4909;42.680;26.324;2023-07-28T13:06:39;98368.19;;;28.78;26.52
9740;BME280;4909;42.680;26.324;2023-07-28T13:09:07;98375.53;;;28.78;26.01
9740;BME280;4909;42.680;26.324;2023-07-28T13:11:33;98361.69;;;28.79;25.66
9740;BME280;4909;42.680;26.324;2023-07-28T13:14:00;98372.19;;;28.68;26.90